Time;durP1;ratioP1;P1;durP2;ratioP2;P2;SDS_P1;SDS_P2;PMS_P1;PMS_P2;Temp;Humidity;BMP_temperature;BMP_pressure;BME280_temperature;BME280_humidity;BME280_pressure;Samples;Min_cycle;Max_cycle;Signal;HPM_P1;HPM_P2
2022/03/31 00:00:56;;;;;;;6.28;4.95;;;10.00;93.00;;;;;;7345381;19;113243;-92
2022/03/31 00:03:23;;;;;;;5.28;4.78;;;10.10;93.00;;;;;;7349906;19;109452;-92
2022/03/31 00:05:51;;;;;;;5.43;4.90;;;10.10;92.80;;;;;;7352708;19;112505;-92
2022/03/31 00:08:20;;;;;;;7.00;5.20;;;10.10;92.90;;;;;;7352712;19;108949;-92
2022/03/31 00:10:52;;;;;;;8.25;5.30;;;10.10;92.90;;;;;;7352166;19;109911;-91
2022/03/31 00:13:22;;;;;;;7.57;5.32;;;10.00;93.10;;;;;;7352094;19;110091;-92
2022/03/31 00:15:50;;;;;;;8.73;5.30;;;9.90;93.10;;;;;;7351916;19;113391;-92
2022/03/31 00:18:17;;;;;;;8.75;5.70;;;9.90;93.40;;;;;;7356433;19;108391;-92
2022/03/31 00:20:44;;;;;;;9.35;5.28;;;9.80;93.60;;;;;;7350708;19;112824;-92
2022/03/31 00:23:13;;;;;;;8.57;5.75;;;9.80;93.90;;;;;;7352203;19;109498;-92
2022/03/31 00:25:40;;;;;;;6.65;5.95;;;9.60;93.90;;;;;;7351685;19;111993;-93
2022/03/31 00:28:07;;;;;;;7.68;5.90;;;9.70;93.90;;;;;;7352388;19;112623;-91
2022/03/31 00:30:35;;;;;;;8.48;6.15;;;9.70;93.80;;;;;;7352222;19;110443;-91
2022/03/31 00:33:02;;;;;;;7.03;5.82;;;9.60;94.10;;;;;;7352164;19;109147;-92
2022/03/31 00:35:30;;;;;;;8.43;5.82;;;9.50;94.20;;;;;;7351900;19;110877;-91
2022/03/31 00:37:57;;;;;;;8.35;5.78;;;9.50;94.20;;;;;;7351108;19;110256;-91
2022/03/31 00:40:25;;;;;;;11.07;5.78;;;9.60;94.20;;;;;;7354827;19;111849;-93
2022/03/31 00:42:57;;;;;;;7.63;5.75;;;9.70;94.10;;;;;;7350117;19;109501;-91
2022/03/31 00:45:24;;;;;;;8.15;6.90;;;9.80;94.00;;;;;;7349135;19;112480;-92
2022/03/31 00:47:53;;;;;;;7.28;6.28;;;9.80;94.00;;;;;;7351194;19;111867;-91
2022/03/31 00:50:22;;;;;;;8.65;6.47;;;9.80;93.80;;;;;;7351599;19;111149;-92
2022/03/31 00:52:49;;;;;;;10.25;7.05;;;9.90;93.80;;;;;;7351384;19;112773;-92
2022/03/31 00:55:31;;;;;;;9.90;7.10;;;9.90;93.80;;;;;;7351747;19;110176;-93
2022/03/31 00:57:59;;;;;;;8.70;6.43;;;9.80;94.10;;;;;;7351850;19;110817;-91
2022/03/31 01:00:27;;;;;;;8.00;6.57;;;9.70;94.20;;;;;;7349845;19;112916;-91
2022/03/31 01:02:55;;;;;;;10.15;6.68;;;9.70;94.30;;;;;;7356334;19;110563;-92
2022/03/31 01:05:22;;;;;;;7.65;6.40;;;9.70;94.30;;;;;;7351247;19;109606;-92
2022/03/31 01:07:49;;;;;;;7.28;6.45;;;9.70;94.40;;;;;;7351122;19;110501;-92
2022/03/31 01:10:16;;;;;;;8.43;6.78;;;9.50;94.60;;;;;;7350520;19;109213;-92
2022/03/31 01:12:43;;;;;;;8.05;6.70;;;9.40;94.90;;;;;;7350635;19;110002;-92
2022/03/31 01:15:14;;;;;;;8.82;6.45;;;9.30;95.10;;;;;;7347976;19;111913;-92
2022/03/31 01:17:44;;;;;;;11.68;6.40;;;9.50;94.90;;;;;;7351117;19;110316;-92
2022/03/31 01:20:14;;;;;;;6.82;6.13;;;9.50;94.90;;;;;;7349835;19;111925;-91
2022/03/31 01:22:43;;;;;;;7.20;6.40;;;9.60;94.90;;;;;;7349661;19;111557;-93
2022/03/31 01:25:10;;;;;;;8.75;6.38;;;9.50;94.80;;;;;;7355366;19;108825;-93
2022/03/31 01:27:43;;;;;;;8.75;6.97;;;9.40;94.90;;;;;;7350306;19;110698;-92
2022/03/31 01:30:16;;;;;;;9.55;6.78;;;9.30;95.00;;;;;;7350813;19;111085;-92
2022/03/31 01:32:44;;;;;;;8.75;7.25;;;9.30;95.20;;;;;;7351194;19;109466;-93
2022/03/31 01:35:13;;;;;;;9.73;7.38;;;9.10;95.40;;;;;;7350653;19;108852;-92
2022/03/31 01:37:41;;;;;;;9.82;7.93;;;9.10;95.60;;;;;;7349974;19;110414;-92
2022/03/31 01:40:09;;;;;;;9.95;7.57;;;9.10;95.70;;;;;;7348353;19;108901;-93
2022/03/31 01:42:37;;;;;;;9.45;7.32;;;8.90;95.90;;;;;;7350455;19;112688;-94
2022/03/31 01:45:07;;;;;;;8.27;7.30;;;8.90;96.00;;;;;;7352386;19;109385;-92
2022/03/31 01:47:34;;;;;;;9.95;7.30;;;8.90;96.00;;;;;;7349911;19;111420;-92
2022/03/31 01:50:02;;;;;;;9.65;7.28;;;8.90;95.90;;;;;;7349530;19;108665;-93
2022/03/31 01:52:29;;;;;;;7.38;6.65;;;9.00;95.90;;;;;;7350355;19;111754;-92
2022/03/31 01:54:56;;;;;;;8.73;7.03;;;8.90;96.10;;;;;;7350877;19;112957;-92
2022/03/31 01:57:23;;;;;;;8.10;7.03;;;8.80;96.30;;;;;;7349688;19;110590;-93
2022/03/31 01:59:51;;;;;;;9.70;7.45;;;8.80;96.30;;;;;;7348446;19;111247;-92
2022/03/31 02:02:18;;;;;;;10.15;7.00;;;8.80;96.40;;;;;;7349276;19;112383;-92
2022/03/31 02:04:46;;;;;;;10.10;7.40;;;8.70;96.60;;;;;;7349823;19;112611;-92
2022/03/31 02:07:13;;;;;;;12.10;8.40;;;8.70;96.80;;;;;;7354794;19;110099;-93
2022/03/31 02:09:41;;;;;;;9.73;6.85;;;8.60;96.90;;;;;;7348744;19;108746;-92
2022/03/31 02:12:09;;;;;;;11.68;7.28;;;8.60;96.90;;;;;;7349722;19;108362;-92
2022/03/31 02:14:37;;;;;;;9.88;7.00;;;8.70;96.80;;;;;;7348288;19;113042;-92
2022/03/31 02:17:08;;;;;;;7.90;7.10;;;8.70;96.80;;;;;;7346562;19;109879;-93
2022/03/31 02:19:36;;;;;;;6.95;5.93;;;8.70;96.80;;;;;;7347508;19;111926;-91
2022/03/31 02:22:04;;;;;;;11.20;6.60;;;8.70;96.70;;;;;;7349962;19;112101;-93
2022/03/31 02:24:32;;;;;;;7.22;6.13;;;8.70;96.90;;;;;;7349365;19;110673;-92
2022/03/31 02:26:58;;;;;;;8.02;6.05;;;8.70;96.80;;;;;;7346413;19;112145;-92
2022/03/31 02:29:26;;;;;;;6.22;5.63;;;8.60;97.00;;;;;;7355630;19;112727;-92
2022/03/31 02:31:56;;;;;;;6.95;6.07;;;8.70;97.00;;;;;;7349636;19;112250;-91
2022/03/31 02:34:23;;;;;;;9.40;5.90;;;8.70;97.00;;;;;;7349362;19;113545;-95
2022/03/31 02:36:50;;;;;;;6.72;6.13;;;8.80;97.00;;;;;;7349008;19;110627;-93
2022/03/31 02:39:17;;;;;;;7.85;6.07;;;8.80;97.00;;;;;;7348676;19;112029;-93
2022/03/31 02:41:45;;;;;;;9.95;7.25;;;8.60;97.30;;;;;;7346160;19;108823;-93
2022/03/31 02:44:12;;;;;;;8.15;6.72;;;8.50;97.50;;;;;;7347255;19;109270;-93
2022/03/31 02:46:39;;;;;;;8.13;6.22;;;8.30;97.70;;;;;;7347994;19;108686;-92
2022/03/31 02:49:06;;;;;;;7.93;7.13;;;8.20;97.80;;;;;;7348136;19;110030;-92
2022/03/31 02:51:33;;;;;;;7.45;6.60;;;8.20;98.10;;;;;;7353700;19;110478;-92
2022/03/31 02:56:46;;;;;;;7.57;6.07;;;8.10;98.10;;;;;;7349468;19;110396;-93
2022/03/31 02:59:13;;;;;;;7.35;6.38;;;8.10;98.20;;;;;;7348757;19;108654;-93
2022/03/31 03:01:42;;;;;;;7.15;6.40;;;8.20;98.20;;;;;;7346680;19;112224;-92
2022/03/31 03:04:09;;;;;;;6.90;6.22;;;8.30;98.10;;;;;;7348589;19;108372;-92
2022/03/31 03:06:37;;;;;;;7.78;7.00;;;8.30;98.00;;;;;;7348043;19;109481;-92
2022/03/31 03:09:05;;;;;;;7.78;6.97;;;8.30;98.00;;;;;;7347567;19;109121;-91
2022/03/31 03:11:33;;;;;;;9.88;7.40;;;8.20;98.30;;;;;;7346919;19;110268;-93
2022/03/31 03:14:01;;;;;;;7.07;5.88;;;8.10;98.30;;;;;;7352960;19;109479;-94
2022/03/31 03:16:28;;;;;;;9.85;5.35;;;8.10;98.60;;;;;;7348476;19;109411;-93
2022/03/31 03:18:55;;;;;;;13.18;6.03;;;8.10;99.20;;;;;;7347361;19;111669;-93
2022/03/31 03:21:22;;;;;;;10.52;5.88;;;8.10;99.40;;;;;;7345956;19;109255;-93
2022/03/31 03:23:49;;;;;;;8.50;6.78;;;8.10;99.40;;;;;;7346762;19;109187;-92
2022/03/31 03:26:17;;;;;;;10.27;8.55;;;8.10;99.40;;;;;;7347553;19;110293;-96
2022/03/31 03:28:44;;;;;;;9.98;8.15;;;8.10;99.60;;;;;;7347138;19;109525;-93
2022/03/31 03:31:11;;;;;;;10.95;7.95;;;8.10;99.40;;;;;;7346967;19;111190;-94
2022/03/31 03:33:40;;;;;;;8.40;7.45;;;8.20;99.70;;;;;;7347417;19;110476;-93
2022/03/31 03:36:10;;;;;;;12.02;6.63;;;8.10;99.80;;;;;;7352594;19;110322;-93
2022/03/31 03:38:39;;;;;;;12.02;10.02;;;8.10;99.80;;;;;;7352334;19;111142;-92
2022/03/31 03:41:08;;;;;;;22.05;17.30;;;8.00;99.90;;;;;;7349189;19;112800;-93
2022/03/31 03:43:35;;;;;;;27.27;20.58;;;7.70;99.90;;;;;;7350445;19;113242;-94
2022/03/31 03:46:02;;;;;;;15.50;11.15;;;7.70;99.90;;;;;;7351135;19;114557;-94
2022/03/31 03:48:30;;;;;;;10.23;9.13;;;7.70;99.90;;;;;;7351552;19;110252;-95
2022/03/31 03:50:58;;;;;;;11.70;8.37;;;7.50;99.90;;;;;;7355098;19;111068;-95
2022/03/31 03:53:25;;;;;;;6.90;6.20;;;7.40;99.90;;;;;;7354410;19;111948;-94
2022/03/31 03:55:53;;;;;;;6.72;5.35;;;7.40;99.90;;;;;;7359370;19;112984;-93
2022/03/31 03:58:20;;;;;;;9.38;6.35;;;7.30;99.90;;;;;;7353831;19;109345;-92
2022/03/31 04:00:47;;;;;;;8.97;5.10;;;7.30;99.90;;;;;;7354132;19;112854;-92
2022/03/31 04:03:14;;;;;;;7.10;4.63;;;7.20;99.90;;;;;;7353312;19;110728;-92
2022/03/31 04:05:41;;;;;;;4.43;4.00;;;7.00;99.90;;;;;;7353359;19;109917;-92
2022/03/31 04:08:08;;;;;;;4.77;3.97;;;6.90;99.90;;;;;;7352689;19;113128;-91
2022/03/31 04:10:36;;;;;;;7.17;4.13;;;6.80;99.90;;;;;;7354261;19;109036;-92
2022/03/31 04:13:03;;;;;;;5.90;5.30;;;6.70;99.90;;;;;;7353535;19;110853;-93
2022/03/31 04:15:30;;;;;;;5.47;4.20;;;6.70;99.90;;;;;;7353206;19;112013;-92
2022/03/31 04:17:58;;;;;;;7.00;3.07;;;6.70;99.90;;;;;;7359383;19;108618;-94
2022/03/31 04:20:25;;;;;;;3.27;2.50;;;6.60;99.90;;;;;;7351392;19;113491;-93
2022/03/31 04:22:53;;;;;;;3.33;2.00;;;6.60;99.90;;;;;;7352897;19;109617;-93
2022/03/31 04:25:21;;;;;;;3.50;3.00;;;6.60;99.90;;;;;;7353350;19;109207;-93
2022/03/31 04:27:48;;;;;;;3.83;3.43;;;6.40;99.90;;;;;;7352701;19;111281;-93
2022/03/31 04:30:20;;;;;;;3.80;2.90;;;6.40;99.90;;;;;;7352931;19;110652;-93
2022/03/31 04:32:48;;;;;;;4.37;3.60;;;6.30;99.90;;;;;;7353005;19;108531;-95
2022/03/31 04:35:16;;;;;;;4.00;3.07;;;6.20;99.90;;;;;;7352570;19;111795;-94
2022/03/31 04:37:43;;;;;;;2.77;2.10;;;6.20;99.90;;;;;;7353123;19;111094;-93
2022/03/31 04:40:11;;;;;;;4.13;1.70;;;6.10;99.90;;;;;;7356828;19;108734;-92
2022/03/31 04:42:38;;;;;;;2.60;1.30;;;6.00;99.90;;;;;;7351882;19;108216;-93
2022/03/31 04:45:06;;;;;;;1.00;0.90;;;5.90;99.90;;;;;;7349660;19;109000;-93
2022/03/31 04:47:33;;;;;;;1.00;0.90;;;5.90;99.90;;;;;;7352256;19;110558;-94
2022/03/31 04:50:01;;;;;;;3.63;1.20;;;5.90;99.90;;;;;;7351790;19;110419;-93
2022/03/31 04:52:28;;;;;;;2.27;2.07;;;5.90;99.90;;;;;;7352199;19;113224;-92
2022/03/31 04:54:55;;;;;;;1.63;1.53;;;5.80;99.90;;;;;;7351404;19;111944;-94
2022/03/31 04:57:22;;;;;;;1.37;1.10;;;5.80;99.90;;;;;;7351904;19;110224;-93
2022/03/31 04:59:49;;;;;;;1.30;1.20;;;5.70;99.90;;;;;;7351488;19;112485;-94
2022/03/31 05:02:18;;;;;;;4.60;1.00;;;5.60;99.90;;;;;;7354555;19;109396;-93
2022/03/31 05:04:45;;;;;;;1.23;1.00;;;5.60;99.90;;;;;;7351760;19;109514;-91
2022/03/31 05:07:12;;;;;;;4.40;0.87;;;5.60;99.90;;;;;;7351166;19;109164;-92
2022/03/31 05:09:41;;;;;;;3.33;1.03;;;5.60;99.90;;;;;;7350735;19;109566;-92
2022/03/31 05:12:09;;;;;;;1.33;0.97;;;5.50;99.90;;;;;;7349203;19;111736;-92
2022/03/31 05:14:37;;;;;;;3.70;1.10;;;5.40;99.90;;;;;;7350211;19;110688;-93
2022/03/31 05:17:05;;;;;;;2.90;1.00;;;5.40;99.90;;;;;;7350374;19;109294;-91
2022/03/31 05:19:34;;;;;;;3.10;1.20;;;5.30;99.90;;;;;;7350461;19;109623;-92
2022/03/31 05:22:01;;;;;;;1.13;1.03;;;5.30;99.90;;;;;;7348437;19;111560;-92
2022/03/31 05:24:28;;;;;;;1.50;1.27;;;5.10;99.90;;;;;;7355690;19;108383;-92
2022/03/31 05:26:55;;;;;;;1.67;1.50;;;4.90;99.90;;;;;;7350060;19;110641;-92
2022/03/31 05:29:22;;;;;;;3.93;1.97;;;4.70;99.90;;;;;;7350699;19;109827;-91
2022/03/31 05:31:50;;;;;;;4.30;2.43;;;4.60;99.90;;;;;;7349473;19;111973;-91
2022/03/31 05:34:19;;;;;;;2.77;2.57;;;4.60;99.90;;;;;;7350209;19;111672;-94
2022/03/31 05:36:46;;;;;;;4.57;3.67;;;4.50;99.90;;;;;;7350168;19;110801;-93
2022/03/31 05:39:13;;;;;;;4.07;3.67;;;4.60;99.90;;;;;;7350608;19;109241;-91
2022/03/31 05:41:40;;;;;;;6.37;4.07;;;4.60;99.90;;;;;;7348764;19;111655;-93
2022/03/31 05:44:07;;;;;;;8.20;4.83;;;4.50;99.90;;;;;;7349272;19;109621;-91
2022/03/31 05:46:34;;;;;;;5.53;4.90;;;4.40;99.90;;;;;;7355072;19;112719;-91
2022/03/31 05:49:03;;;;;;;5.40;4.60;;;4.40;99.90;;;;;;7349402;19;110429;-91
2022/03/31 05:51:30;;;;;;;5.40;4.90;;;4.30;99.90;;;;;;7348999;19;110768;-92
2022/03/31 05:53:58;;;;;;;5.77;5.27;;;4.30;99.90;;;;;;7348594;19;110085;-91
2022/03/31 05:56:25;;;;;;;10.50;6.03;;;4.20;99.90;;;;;;7349477;19;109066;-93
2022/03/31 05:58:52;;;;;;;7.73;6.70;;;4.20;99.90;;;;;;7349264;19;112362;-93
2022/03/31 06:01:19;;;;;;;7.63;6.43;;;4.30;99.90;;;;;;7347254;19;112828;-94
2022/03/31 06:03:47;;;;;;;8.57;7.00;;;4.40;99.90;;;;;;7350329;19;110031;-91
2022/03/31 06:06:14;;;;;;;8.60;7.63;;;4.40;99.90;;;;;;7353457;19;110380;-90
2022/03/31 06:08:41;;;;;;;10.33;7.63;;;4.40;99.90;;;;;;7350759;19;108081;-93
2022/03/31 06:11:08;;;;;;;8.53;7.63;;;4.40;99.90;;;;;;7349472;19;111192;-94
2022/03/31 06:13:35;;;;;;;6.77;6.07;;;4.40;99.90;;;;;;7347952;19;112678;-92
2022/03/31 06:16:03;;;;;;;7.87;6.10;;;4.50;99.90;;;;;;7347044;19;108374;-92
2022/03/31 06:18:31;;;;;;;10.40;6.80;;;4.60;99.90;;;;;;7349013;19;112505;-91
2022/03/31 06:20:58;;;;;;;7.77;6.97;;;4.60;99.90;;;;;;7346558;19;110614;-91
2022/03/31 06:23:26;;;;;;;7.70;6.87;;;4.50;99.90;;;;;;7346839;19;109871;-92
2022/03/31 06:25:53;;;;;;;8.27;7.30;;;4.40;99.90;;;;;;7345941;19;111594;-93
2022/03/31 06:28:20;;;;;;;8.87;7.40;;;4.50;99.90;;;;;;7353387;19;109141;-91
2022/03/31 06:30:48;;;;;;;9.33;7.30;;;4.60;99.90;;;;;;7348389;19;109620;-93
2022/03/31 06:33:17;;;;;;;8.10;7.40;;;4.60;99.90;;;;;;7348066;19;113454;-92
2022/03/31 06:35:45;;;;;;;9.03;6.67;;;4.60;99.90;;;;;;7347906;19;108882;-92
2022/03/31 06:38:12;;;;;;;7.70;6.33;;;4.50;99.90;;;;;;7348390;19;111644;-92
2022/03/31 06:40:41;;;;;;;7.83;6.73;;;4.50;99.90;;;;;;7348192;19;112672;-93
2022/03/31 06:43:08;;;;;;;5.90;5.30;;;4.40;99.90;;;;;;7345206;19;110717;-93
2022/03/31 06:45:36;;;;;;;4.83;4.13;;;4.40;99.90;;;;;;7348335;19;112877;-93
2022/03/31 06:48:05;;;;;;;5.23;4.73;;;4.50;99.90;;;;;;7347637;19;110731;-94
2022/03/31 06:50:34;;;;;;;4.20;3.80;;;4.60;99.90;;;;;;7353289;19;110491;-94
2022/03/31 06:53:02;;;;;;;5.73;5.20;;;4.60;99.90;;;;;;7348185;19;111589;-94
2022/03/31 06:55:29;;;;;;;5.70;5.20;;;4.60;99.90;;;;;;7348268;19;110454;-92
2022/03/31 06:57:57;;;;;;;7.50;6.33;;;4.60;99.90;;;;;;7348586;19;110504;-93
2022/03/31 07:00:25;;;;;;;6.33;5.73;;;4.60;99.90;;;;;;7348010;19;112157;-92
2022/03/31 07:02:52;;;;;;;8.47;7.67;;;4.60;99.90;;;;;;7345238;19;111072;-93
2022/03/31 07:05:20;;;;;;;9.97;7.87;;;4.70;99.90;;;;;;7348431;19;108784;-93
2022/03/31 07:07:47;;;;;;;8.80;7.90;;;4.80;99.90;;;;;;7347235;19;110924;-93
2022/03/31 07:10:14;;;;;;;11.47;9.63;;;4.80;99.90;;;;;;7349658;19;108255;-92
2022/03/31 07:12:41;;;;;;;9.80;8.83;;;4.90;99.90;;;;;;7352169;19;112520;-93
2022/03/31 07:15:09;;;;;;;13.83;11.27;;;4.90;99.90;;;;;;7347788;19;109226;-92
2022/03/31 07:17:38;;;;;;;10.73;9.63;;;5.00;99.90;;;;;;7344814;19;114869;-92
2022/03/31 07:20:06;;;;;;;13.40;9.97;;;5.00;99.90;;;;;;7347528;19;112208;-93
2022/03/31 07:22:33;;;;;;;9.70;8.73;;;4.80;99.90;;;;;;7344377;19;110317;-91
2022/03/31 07:25:01;;;;;;;11.10;9.77;;;4.80;99.90;;;;;;7347015;19;110419;-91
2022/03/31 07:27:28;;;;;;;8.40;7.60;;;4.70;99.90;;;;;;7346283;19;112598;-92
2022/03/31 07:29:55;;;;;;;7.90;7.10;;;4.70;99.90;;;;;;7346891;19;108897;-91
2022/03/31 07:32:22;;;;;;;11.33;6.60;;;4.70;99.90;;;;;;7346275;19;109494;-92
2022/03/31 07:34:49;;;;;;;10.40;8.60;;;4.60;99.90;;;;;;7352101;19;112969;-92
2022/03/31 07:37:17;;;;;;;8.90;8.00;;;4.60;99.90;;;;;;7345468;19;110049;-92
2022/03/31 07:39:46;;;;;;;7.03;6.30;;;4.70;99.90;;;;;;7346596;19;111748;-92
2022/03/31 07:42:14;;;;;;;8.53;6.60;;;4.70;99.90;;;;;;7345451;19;110468;-92
2022/03/31 07:44:44;;;;;;;9.00;8.10;;;4.70;99.90;;;;;;7343938;19;109038;-91
2022/03/31 07:47:11;;;;;;;8.87;7.90;;;4.70;99.90;;;;;;7346424;19;110012;-91
2022/03/31 07:49:39;;;;;;;9.73;7.93;;;4.80;99.90;;;;;;7345257;19;110633;-91
2022/03/31 07:52:07;;;;;;;9.63;8.73;;;4.90;99.90;;;;;;7345509;19;111655;-92
2022/03/31 07:54:54;;;;;;;10.33;9.23;;;4.90;99.90;;;;;;7345091;19;110730;-92
2022/03/31 07:57:26;;;;;;;11.30;9.47;;;5.00;99.90;;;;;;7349599;19;108515;-92
2022/03/31 07:59:53;;;;;;;13.67;11.10;;;5.00;99.90;;;;;;7345900;19;112764;-92
2022/03/31 08:02:21;;;;;;;10.93;9.80;;;5.10;99.90;;;;;;7341391;19;112714;-94
2022/03/31 08:04:48;;;;;;;11.93;9.23;;;5.20;99.90;;;;;;7345836;19;112242;-92
2022/03/31 08:07:15;;;;;;;10.50;9.50;;;5.20;99.90;;;;;;7344533;19;113428;-91
2022/03/31 08:09:42;;;;;;;9.40;8.50;;;5.20;99.90;;;;;;7345787;19;109250;-92
2022/03/31 08:12:10;;;;;;;9.43;8.33;;;5.30;99.90;;;;;;7344725;19;110612;-91
2022/03/31 08:14:37;;;;;;;8.00;7.30;;;5.30;99.90;;;;;;7344786;19;110428;-91
2022/03/31 08:17:04;;;;;;;6.97;6.27;;;5.30;99.90;;;;;;7350818;19;111349;-92
2022/03/31 08:19:32;;;;;;;5.50;5.00;;;5.30;99.90;;;;;;7345185;19;113102;-92
2022/03/31 08:22:01;;;;;;;6.10;5.50;;;5.40;99.90;;;;;;7344745;19;110714;-94
2022/03/31 08:24:30;;;;;;;5.93;4.70;;;5.30;99.90;;;;;;7349249;19;110829;-91
2022/03/31 08:27:01;;;;;;;7.27;5.80;;;5.40;99.90;;;;;;7351997;19;112705;-92
2022/03/31 08:29:28;;;;;;;7.60;5.03;;;5.40;99.90;;;;;;7351689;19;109727;-93
2022/03/31 08:31:56;;;;;;;6.50;5.90;;;5.30;99.90;;;;;;7351615;19;112134;-93
2022/03/31 08:34:23;;;;;;;6.23;5.63;;;5.40;99.90;;;;;;7352923;19;111422;-95
2022/03/31 08:36:51;;;;;;;6.67;6.00;;;5.50;99.90;;;;;;7350195;19;110916;-92
2022/03/31 08:39:18;;;;;;;5.97;5.13;;;5.50;99.90;;;;;;7356617;19;109481;-92
2022/03/31 08:41:45;;;;;;;6.20;5.27;;;5.50;99.90;;;;;;7350270;19;108326;-93
2022/03/31 08:44:14;;;;;;;6.27;4.63;;;5.50;99.90;;;;;;7349116;19;109225;-93
2022/03/31 08:46:41;;;;;;;4.70;4.23;;;5.50;99.90;;;;;;7350286;19;112710;-92
2022/03/31 08:49:09;;;;;;;7.33;4.07;;;5.50;99.90;;;;;;7351510;19;108583;-91
2022/03/31 08:51:36;;;;;;;5.60;3.80;;;5.50;99.90;;;;;;7351912;19;109180;-91
2022/03/31 08:54:04;;;;;;;5.67;4.27;;;5.50;99.90;;;;;;7350903;19;109255;-92
2022/03/31 08:56:32;;;;;;;5.57;4.13;;;5.60;99.90;;;;;;7350797;19;110677;-92
2022/03/31 08:59:19;;;;;;;4.68;4.22;;;5.60;99.90;;;;;;7351171;19;111467;-91
2022/03/31 09:01:46;;;;;;;5.37;3.77;;;5.60;99.90;;;;;;7358704;19;110149;-92
2022/03/31 09:04:24;;;;;;;5.57;3.50;;;5.60;99.90;;;;;;7348074;19;111847;-93
2022/03/31 09:07:05;;;;;;;6.07;3.63;;;5.70;99.90;;;;;;7350842;19;112049;-91
2022/03/31 09:09:44;;;;;;;3.77;3.17;;;5.70;99.90;;;;;;7352017;19;111332;-92
2022/03/31 09:12:11;;;;;;;7.43;5.10;;;5.70;99.90;;;;;;7350723;19;111443;-92
2022/03/31 09:14:50;;;;;;;9.47;4.03;;;5.60;99.90;;;;;;7350750;19;113077;-93
2022/03/31 09:17:19;;;;;;;7.40;5.40;;;5.50;99.90;;;;;;7351276;19;108186;-93
2022/03/31 09:19:46;;;;;;;6.27;5.40;;;5.50;99.90;;;;;;7349973;19;108443;-92
2022/03/31 09:22:13;;;;;;;8.37;5.20;;;5.60;99.90;;;;;;7349961;19;110487;-92
2022/03/31 09:24:40;;;;;;;6.43;5.50;;;5.70;99.90;;;;;;7356729;19;108442;-92
2022/03/31 09:27:07;;;;;;;8.57;5.27;;;5.80;99.90;;;;;;7349230;19;113009;-91
2022/03/31 09:29:35;;;;;;;6.30;5.27;;;5.90;99.90;;;;;;7350856;19;108166;-93
2022/03/31 09:32:06;;;;;;;5.80;4.23;;;6.00;99.90;;;;;;7351654;19;112147;-92
2022/03/31 09:34:44;;;;;;;5.70;4.00;;;6.20;99.90;;;;;;7349070;19;111582;-93
2022/03/31 09:37:12;;;;;;;3.90;3.27;;;6.20;99.90;;;;;;7349799;19;110177;-93
2022/03/31 09:39:40;;;;;;;3.63;2.90;;;6.30;99.90;;;;;;7350459;19;111740;-92
2022/03/31 09:42:14;;;;;;;6.47;3.53;;;6.30;99.90;;;;;;7349174;19;111228;-93
2022/03/31 09:44:42;;;;;;;3.50;3.20;;;6.30;99.90;;;;;;7346726;19;108577;-91
2022/03/31 09:47:11;;;;;;;3.17;2.80;;;6.40;99.90;;;;;;7355101;19;109246;-91
2022/03/31 09:49:38;;;;;;;5.33;4.47;;;6.50;99.90;;;;;;7349536;19;108394;-93
2022/03/31 09:52:07;;;;;;;6.97;6.27;;;6.60;99.90;;;;;;7347300;19;112329;-94
2022/03/31 09:54:35;;;;;;;9.20;7.03;;;6.60;99.90;;;;;;7343025;19;111027;-93
2022/03/31 09:57:07;;;;;;;9.07;7.13;;;6.70;99.90;;;;;;7344514;19;108692;-93
2022/03/31 09:59:38;;;;;;;8.97;7.60;;;6.80;99.90;;;;;;7345622;19;109523;-92
2022/03/31 10:02:06;;;;;;;8.00;6.53;;;6.80;99.90;;;;;;7343612;19;111505;-92
2022/03/31 10:04:34;;;;;;;8.57;7.67;;;7.00;99.90;;;;;;7342641;19;110123;-91
2022/03/31 10:07:05;;;;;;;12.83;9.77;;;7.00;99.90;;;;;;7349032;19;109370;-93
2022/03/31 10:09:35;;;;;;;10.30;9.40;;;7.10;99.90;;;;;;7344686;19;108496;-92
2022/03/31 10:12:26;;;;;;;9.00;8.10;;;7.10;99.90;;;;;;7343944;19;110908;-93
2022/03/31 10:14:59;;;;;;;7.13;6.10;;;7.30;99.90;;;;;;7343868;19;110929;-92
2022/03/31 10:17:29;;;;;;;8.80;7.37;;;7.40;99.90;;;;;;7344674;19;109401;-93
2022/03/31 10:20:11;;;;;;;7.97;7.17;;;7.40;99.90;;;;;;7342503;19;112299;-93
2022/03/31 10:25:36;;;;;;;4.73;4.20;;;7.50;99.90;;;;;;7342849;19;109982;-93
2022/03/31 10:28:16;;;;;;;3.30;3.00;;;7.60;99.90;;;;;;7344194;19;110754;-93
2022/03/31 10:30:57;;;;;;;3.90;3.60;;;7.70;99.90;;;;;;7350139;19;111643;-93
2022/03/31 10:33:29;;;;;;;3.83;3.40;;;7.60;99.90;;;;;;7345178;19;112025;-92
2022/03/31 10:36:16;;;;;;;3.70;3.30;;;7.60;99.90;;;;;;7344593;19;113533;-93
2022/03/31 10:39:15;;;;;;;3.40;3.10;;;7.90;99.90;;;;;;7344131;19;109265;-93
2022/03/31 10:41:44;;;;;;;4.17;3.10;;;8.00;99.90;;;;;;7343585;19;112384;-94
2022/03/31 10:44:11;;;;;;;3.30;3.00;;;8.00;99.90;;;;;;7344800;19;109153;-93
2022/03/31 10:46:41;;;;;;;3.78;2.70;;;8.00;99.90;;;;;;7344186;19;110495;-94
2022/03/31 10:49:12;;;;;;;4.30;2.80;;;8.10;99.90;;;;;;7347365;19;112176;-94
2022/03/31 10:51:42;;;;;;;4.37;3.10;;;8.20;99.90;;;;;;7346891;19;112147;-95
2022/03/31 10:54:12;;;;;;;3.30;3.00;;;8.20;99.90;;;;;;7361047;19;109325;-92
2022/03/31 10:56:40;;;;;;;4.45;2.95;;;8.10;99.90;;;;;;7350462;19;109284;-92
2022/03/31 10:59:07;;;;;;;3.80;2.90;;;8.00;99.90;;;;;;7342836;19;109947;-89
2022/03/31 11:01:37;;;;;;;4.35;3.05;;;8.10;99.90;;;;;;7346996;19;109637;-90
2022/03/31 11:04:12;;;;;;;3.47;2.58;;;8.20;99.90;;;;;;7343888;19;111797;-91
2022/03/31 11:06:47;;;;;;;4.18;2.40;;;8.40;99.90;;;;;;7345216;19;108666;-90
2022/03/31 11:09:27;;;;;;;3.85;2.10;;;8.40;99.90;;;;;;7346748;19;110984;-91
2022/03/31 11:11:59;;;;;;;5.20;2.00;;;8.30;99.90;;;;;;7346530;19;113410;-92
2022/03/31 11:14:27;;;;;;;2.92;2.13;;;8.30;99.90;;;;;;7346095;19;108432;-91
2022/03/31 11:16:54;;;;;;;2.55;2.00;;;8.30;99.90;;;;;;7350808;19;111529;-91
2022/03/31 11:19:21;;;;;;;2.72;2.20;;;8.30;99.90;;;;;;7346108;19;108814;-91
2022/03/31 11:21:49;;;;;;;2.78;2.40;;;8.30;99.90;;;;;;7348077;19;111672;-92
2022/03/31 11:24:23;;;;;;;4.85;2.45;;;8.30;99.90;;;;;;7342079;19;112613;-91
2022/03/31 11:26:53;;;;;;;2.90;2.35;;;8.30;99.90;;;;;;7344645;19;110429;-91
2022/03/31 11:29:24;;;;;;;2.67;2.45;;;8.10;99.90;;;;;;7345092;19;108758;-91
2022/03/31 11:31:53;;;;;;;3.15;2.70;;;8.10;99.90;;;;;;7343452;19;112974;-92
2022/03/31 11:34:25;;;;;;;3.78;2.60;;;8.30;99.90;;;;;;7344077;19;110946;-90
2022/03/31 11:36:54;;;;;;;4.57;2.80;;;8.50;99.90;;;;;;7344677;19;109173;-91
2022/03/31 11:39:30;;;;;;;4.00;2.25;;;8.60;99.90;;;;;;7347927;19;112697;-92
2022/03/31 11:41:59;;;;;;;3.95;2.85;;;8.70;99.90;;;;;;7343561;19;109094;-91
2022/03/31 11:44:29;;;;;;;2.97;2.35;;;8.70;99.90;;;;;;7341285;19;111635;-91
2022/03/31 11:46:57;;;;;;;4.60;2.70;;;8.70;99.90;;;;;;7343770;19;109400;-92
2022/03/31 11:49:27;;;;;;;3.88;2.40;;;8.70;99.90;;;;;;7343884;19;111836;-90
2022/03/31 11:51:56;;;;;;;3.83;2.50;;;8.70;99.90;;;;;;7344559;19;112395;-90
2022/03/31 11:54:25;;;;;;;2.58;2.25;;;8.60;99.90;;;;;;7344243;19;110272;-91
2022/03/31 11:57:13;;;;;;;4.43;2.58;;;8.60;99.90;;;;;;7344520;19;110942;-91
2022/03/31 11:59:40;;;;;;;4.18;2.30;;;8.60;99.90;;;;;;7348351;19;110199;-90
2022/03/31 12:02:17;;;;;;;3.35;2.38;;;8.60;99.90;;;;;;7358371;19;110712;-89
2022/03/31 12:04:47;;;;;;;4.13;2.58;;;8.70;99.90;;;;;;7349504;19;113138;-91
2022/03/31 12:07:16;;;;;;;3.83;2.42;;;8.70;99.90;;;;;;7353223;19;108280;-90
2022/03/31 12:09:44;;;;;;;3.80;2.72;;;8.90;99.90;;;;;;7352051;19;112330;-91
2022/03/31 12:12:13;;;;;;;4.38;2.50;;;9.00;99.90;;;;;;7351387;19;109588;-90
2022/03/31 12:14:56;;;;;;;3.08;2.38;;;9.10;99.90;;;;;;7351546;19;109311;-91
2022/03/31 12:17:23;;;;;;;2.72;2.40;;;9.20;99.80;;;;;;7352369;19;109786;-91
2022/03/31 12:19:51;;;;;;;4.28;2.60;;;9.30;99.30;;;;;;7351330;19;112941;-90
2022/03/31 12:22:29;;;;;;;3.85;2.33;;;9.20;99.40;;;;;;7356531;19;110834;-92
2022/03/31 12:24:56;;;;;;;2.92;2.50;;;9.30;99.40;;;;;;7349815;19;110331;-90
2022/03/31 12:27:27;;;;;;;3.97;2.75;;;9.60;99.00;;;;;;7351667;19;108607;-92
2022/03/31 12:30:04;;;;;;;3.78;2.50;;;9.70;98.90;;;;;;7350972;19;109205;-91
2022/03/31 12:32:33;;;;;;;2.92;2.55;;;9.80;98.40;;;;;;7351818;19;110121;-91
2022/03/31 12:35:02;;;;;;;3.50;2.40;;;9.90;97.60;;;;;;7351285;19;108248;-91
2022/03/31 12:37:38;;;;;;;3.20;2.50;;;9.80;97.70;;;;;;7350595;19;109765;-91
2022/03/31 12:40:12;;;;;;;3.33;2.85;;;9.80;97.50;;;;;;7350760;19;110222;-91
2022/03/31 12:42:55;;;;;;;3.55;2.63;;;9.80;98.10;;;;;;7351413;19;111387;-93
2022/03/31 12:45:22;;;;;;;2.70;2.35;;;9.80;98.00;;;;;;7353125;19;108860;-91
2022/03/31 12:47:50;;;;;;;3.38;2.42;;;9.80;98.00;;;;;;7351366;19;110941;-91
2022/03/31 12:50:21;;;;;;;4.93;2.70;;;9.70;98.20;;;;;;7351101;19;112644;-91
2022/03/31 12:53:00;;;;;;;2.80;2.47;;;9.60;97.30;;;;;;7349958;19;112252;-92
2022/03/31 12:55:36;;;;;;;2.88;2.40;;;9.50;97.50;;;;;;7352358;19;108664;-91
2022/03/31 12:58:06;;;;;;;3.20;2.38;;;9.50;97.70;;;;;;7350198;19;112700;-91
2022/03/31 13:00:35;;;;;;;2.40;2.20;;;9.60;97.20;;;;;;7350881;19;112632;-91